Time,TemperatureF,DewpointF,PressureIn,WindDirection,WindDirectionDegrees,WindSpeedMPH,WindSpeedGustMPH,Humidity,HourlyPrecipIn,Conditions,Clouds,dailyrainin,SoftwareType,DateUTC
2013-08-27 00:01:00,71.4,66.0,30.15,SSW,202,0.0,1.3,83,0.00,,,0.00,WUHU21623XXSP,2013-08-27 04:01:00,
2013-08-27 00:06:00,71.2,65.8,30.14,SSW,202,0.0,0.0,83,0.00,,,0.00,WUHU21623XXSP,2013-08-27 04:06:00,
2013-08-27 00:11:00,71.1,65.6,30.14,SSW,202,0.0,0.0,83,0.00,,,0.00,WUHU21623XXSP,2013-08-27 04:11:00,
2013-08-27 00:16:00,70.9,65.4,30.14,SSW,202,0.0,0.0,83,0.00,,,0.00,WUHU21623XXSP,2013-08-27 04:16:00,
2013-08-27 00:21:00,70.5,65.1,30.14,SSW,202,0.0,0.0,83,0.00,,,0.00,WUHU21623XXSP,2013-08-27 04:21:00,
2013-08-27 00:26:00,70.3,64.9,30.14,SSW,202,0.0,0.0,83,0.00,,,0.00,WUHU21623XXSP,2013-08-27 04:26:00,
2013-08-27 00:31:00,70.2,64.7,30.14,SSW,202,0.0,0.0,83,0.00,,,0.00,WUHU21623XXSP,2013-08-27 04:31:00,
2013-08-27 00:36:00,70.0,64.5,30.14,SSW,202,0.0,0.0,83,0.00,,,0.00,WUHU21623XXSP,2013-08-27 04:36:00,
2013-08-27 00:41:00,70.0,64.5,30.14,SSW,202,0.0,0.0,83,0.00,,,0.00,WUHU21623XXSP,2013-08-27 04:41:00,
2013-08-27 00:46:00,69.8,64.7,30.14,SSW,202,0.0,0.0,84,0.00,,,0.00,WUHU21623XXSP,2013-08-27 04:46:00,
2013-08-27 00:51:00,69.6,64.5,30.14,SSW,202,0.0,0.0,84,0.00,,,0.00,WUHU21623XXSP,2013-08-27 04:51:00,
2013-08-27 00:56:00,69.6,64.5,30.14,SSW,202,0.0,0.0,84,0.00,,,0.00,WUHU21623XXSP,2013-08-27 04:56:00,
2013-08-27 01:01:00,69.8,64.7,30.14,SSW,202,0.0,0.0,84,0.00,,,0.00,WUHU21623XXSP,2013-08-27 05:01:00,
2013-08-27 01:06:00,69.8,65.0,30.14,SSW,202,0.0,0.0,85,0.00,,,0.00,WUHU21623XXSP,2013-08-27 05:06:00,
2013-08-27 01:11:00,70.0,65.2,30.14,SSW,202,0.0,0.0,85,0.00,,,0.00,WUHU21623XXSP,2013-08-27 05:11:00,
2013-08-27 01:16:00,70.0,65.6,30.13,SSW,202,0.0,0.0,86,0.00,,,0.00,WUHU21623XXSP,2013-08-27 05:16:00,
2013-08-27 01:21:00,70.0,65.6,30.13,SSW,202,0.0,0.0,86,0.00,,,0.00,WUHU21623XXSP,2013-08-27 05:21:00,
2013-08-27 01:26:00,70.0,65.6,30.13,SSW,202,0.0,0.0,86,0.00,,,0.00,WUHU21623XXSP,2013-08-27 05:26:00,
2013-08-27 01:31:00,69.8,65.4,30.12,SSW,202,0.0,0.0,86,0.00,,,0.00,WUHU21623XXSP,2013-08-27 05:31:00,
2013-08-27 01:36:00,70.0,65.6,30.12,SSW,202,0.0,0.0,86,0.00,,,0.00,WUHU21623XXSP,2013-08-27 05:36:00,
2013-08-27 01:41:00,70.0,65.6,30.12,SSW,202,0.0,0.0,86,0.00,,,0.00,WUHU21623XXSP,2013-08-27 05:41:00,
2013-08-27 01:46:00,70.0,65.6,30.12,SSW,202,0.0,0.0,86,0.00,,,0.00,WUHU21623XXSP,2013-08-27 05:46:00,
2013-08-27 01:51:00,69.6,65.4,30.12,SSW,202,0.0,0.0,86,0.00,,,0.00,WUHU21623XXSP,2013-08-27 05:51:00,
2013-08-27 01:56:00,69.6,65.2,30.12,SSW,202,0.0,0.0,86,0.00,,,0.00,WUHU21623XXSP,2013-08-27 05:56:00,
2013-08-27 02:01:00,69.4,65.4,30.12,SSW,202,0.0,0.0,87,0.00,,,0.00,WUHU21623XXSP,2013-08-27 06:01:00,
2013-08-27 02:06:00,69.4,65.4,30.11,SSW,202,0.0,0.0,87,0.00,,,0.00,WUHU21623XXSP,2013-08-27 06:06:00,
2013-08-27 02:11:00,69.4,65.4,30.11,SSW,202,0.0,0.0,87,0.00,,,0.00,WUHU21623XXSP,2013-08-27 06:11:00,
2013-08-27 02:16:00,69.4,65.4,30.11,SSW,202,0.0,0.0,87,0.00,,,0.00,WUHU21623XXSP,2013-08-27 06:16:00,
2013-08-27 02:21:00,69.3,65.2,30.11,SSW,202,0.0,0.0,87,0.00,,,0.00,WUHU21623XXSP,2013-08-27 06:21:00,
2013-08-27 02:26:00,69.1,65.0,30.11,SSW,202,0.0,0.0,87,0.00,,,0.00,WUHU21623XXSP,2013-08-27 06:26:00,
2013-08-27 02:31:00,69.1,65.0,30.11,SSW,202,0.0,0.0,87,0.00,,,0.00,WUHU21623XXSP,2013-08-27 06:31:00,
2013-08-27 02:36:00,69.1,65.0,30.11,SSW,202,0.0,0.0,87,0.00,,,0.00,WUHU21623XXSP,2013-08-27 06:36:00,
2013-08-27 02:41:00,69.1,65.0,30.11,SSW,202,0.0,0.0,87,0.00,,,0.00,WUHU21623XXSP,2013-08-27 06:41:00,
2013-08-27 02:46:00,69.1,65.0,30.11,SSW,202,0.0,0.0,87,0.00,,,0.00,WUHU21623XXSP,2013-08-27 06:46:00,
2013-08-27 02:51:00,68.9,64.8,30.11,SSW,202,0.0,0.0,87,0.00,,,0.00,WUHU21623XXSP,2013-08-27 06:51:00,
2013-08-27 02:56:00,68.7,64.7,30.11,SSW,202,0.0,0.0,87,0.00,,,0.00,WUHU21623XXSP,2013-08-27 06:56:00,
2013-08-27 03:01:00,68.7,64.7,30.11,SSW,202,0.0,0.0,87,0.00,,,0.00,WUHU21623XXSP,2013-08-27 07:01:00,
2013-08-27 03:06:00,68.7,65.0,30.11,SSW,202,0.0,0.0,88,0.00,,,0.00,WUHU21623XXSP,2013-08-27 07:06:00,
2013-08-27 03:11:00,68.9,65.2,30.11,SSW,202,0.0,0.0,88,0.00,,,0.00,WUHU21623XXSP,2013-08-27 07:11:00,
2013-08-27 03:16:00,69.1,65.3,30.10,SSW,202,0.0,0.0,88,0.00,,,0.00,WUHU21623XXSP,2013-08-27 07:16:00,
2013-08-27 03:21:00,68.9,65.3,30.11,SSW,202,0.0,0.0,88,0.00,,,0.00,WUHU21623XXSP,2013-08-27 07:21:00,
2013-08-27 03:26:00,68.9,65.2,30.11,SSW,202,0.0,0.0,88,0.00,,,0.00,WUHU21623XXSP,2013-08-27 07:26:00,
2013-08-27 03:31:00,68.7,65.0,30.10,SSW,202,0.0,0.0,88,0.00,,,0.00,WUHU21623XXSP,2013-08-27 07:31:00,
2013-08-27 03:36:00,68.7,65.0,30.11,SSW,202,0.0,0.0,88,0.00,,,0.00,WUHU21623XXSP,2013-08-27 07:36:00,
2013-08-27 03:41:00,68.7,65.0,30.11,SSW,202,0.0,0.0,88,0.00,,,0.00,WUHU21623XXSP,2013-08-27 07:41:00,
2013-08-27 03:46:00,68.9,65.2,30.11,SSW,202,0.0,0.0,88,0.00,,,0.00,WUHU21623XXSP,2013-08-27 07:46:00,
2013-08-27 03:51:00,69.1,65.7,30.10,SSW,202,0.0,0.0,89,0.00,,,0.00,WUHU21623XXSP,2013-08-27 07:51:00,
2013-08-27 03:56:00,69.4,66.0,30.10,SSW,202,0.0,0.0,89,0.00,,,0.00,WUHU21623XXSP,2013-08-27 07:56:00,
2013-08-27 04:01:00,69.6,66.2,30.10,SSW,202,0.0,0.0,89,0.00,,,0.00,WUHU21623XXSP,2013-08-27 08:01:00,
2013-08-27 04:06:00,69.6,66.2,30.10,SSW,202,0.0,0.0,89,0.00,,,0.00,WUHU21623XXSP,2013-08-27 08:06:00,
2013-08-27 04:11:00,69.8,66.4,30.10,WSW,247,0.0,0.0,89,0.00,,,0.00,WUHU21623XXSP,2013-08-27 08:11:00,
2013-08-27 04:16:00,69.8,66.4,30.10,WSW,247,0.0,0.0,89,0.00,,,0.00,WUHU21623XXSP,2013-08-27 08:16:00,
2013-08-27 04:21:00,69.6,66.2,30.10,WSW,247,0.0,0.0,89,0.00,,,0.00,WUHU21623XXSP,2013-08-27 08:21:00,
2013-08-27 04:26:00,69.6,66.2,30.10,WSW,247,0.0,0.0,89,0.00,,,0.00,WUHU21623XXSP,2013-08-27 08:26:00,
2013-08-27 04:31:00,69.6,66.2,30.10,WSW,247,0.0,0.0,89,0.00,,,0.00,WUHU21623XXSP,2013-08-27 08:31:00,
2013-08-27 04:36:00,69.6,66.2,30.10,WSW,247,0.0,0.0,89,0.00,,,0.00,WUHU21623XXSP,2013-08-27 08:36:00,
2013-08-27 04:41:00,69.4,66.0,30.10,WSW,247,0.0,0.0,89,0.00,,,0.00,WUHU21623XXSP,2013-08-27 08:41:00,
2013-08-27 04:46:00,69.4,66.0,30.09,WSW,247,0.0,0.0,89,0.00,,,0.00,WUHU21623XXSP,2013-08-27 08:46:00,
2013-08-27 04:51:00,69.6,66.2,30.10,WSW,247,0.0,0.0,89,0.00,,,0.00,WUHU21623XXSP,2013-08-27 08:51:00,
2013-08-27 04:56:00,69.4,66.0,30.09,WSW,247,0.0,0.0,89,0.00,,,0.00,WUHU21623XXSP,2013-08-27 08:56:00,
2013-08-27 05:01:00,69.4,66.0,30.10,WSW,247,0.0,0.0,89,0.00,,,0.00,WUHU21623XXSP,2013-08-27 09:01:00,
2013-08-27 05:06:00,69.4,66.0,30.09,WSW,247,0.0,0.0,89,0.00,,,0.00,WUHU21623XXSP,2013-08-27 09:06:00,
2013-08-27 05:11:00,69.4,66.0,30.09,WSW,247,0.0,0.0,89,0.00,,,0.00,WUHU21623XXSP,2013-08-27 09:11:00,
2013-08-27 05:16:00,69.6,66.2,30.09,WSW,247,0.0,0.0,89,0.00,,,0.00,WUHU21623XXSP,2013-08-27 09:16:00,
2013-08-27 05:21:00,69.6,66.2,30.10,WSW,247,0.0,0.0,89,0.00,,,0.00,WUHU21623XXSP,2013-08-27 09:21:00,
2013-08-27 05:26:00,69.4,66.0,30.10,WSW,247,0.0,0.0,89,0.00,,,0.00,WUHU21623XXSP,2013-08-27 09:26:00,
2013-08-27 05:31:00,69.4,66.0,30.09,WSW,247,0.0,0.0,89,0.00,,,0.00,WUHU21623XXSP,2013-08-27 09:31:00,
2013-08-27 05:36:00,69.6,66.2,30.09,WSW,247,0.0,0.0,89,0.00,,,0.00,WUHU21623XXSP,2013-08-27 09:36:00,
2013-08-27 05:41:00,69.6,66.2,30.09,WSW,247,0.0,0.0,89,0.00,,,0.00,WUHU21623XXSP,2013-08-27 09:41:00,
2013-08-27 05:46:00,69.6,66.2,30.09,WSW,247,0.0,0.0,89,0.00,,,0.00,WUHU21623XXSP,2013-08-27 09:46:00,
2013-08-27 05:51:00,69.6,66.2,30.09,WSW,247,0.0,0.0,89,0.00,,,0.00,WUHU21623XXSP,2013-08-27 09:51:00,
2013-08-27 05:56:00,69.6,66.2,30.09,WSW,247,0.0,0.0,89,0.00,,,0.00,WUHU21623XXSP,2013-08-27 09:56:00,
2013-08-27 06:01:00,69.6,66.6,30.09,WSW,247,0.0,0.0,90,0.00,,,0.00,WUHU21623XXSP,2013-08-27 10:01:00,
2013-08-27 06:06:00,69.6,66.6,30.09,WSW,247,0.0,0.0,90,0.00,,,0.00,WUHU21623XXSP,2013-08-27 10:06:00,
2013-08-27 06:11:00,69.6,66.6,30.09,WSW,247,0.0,0.0,90,0.00,,,0.00,WUHU21623XXSP,2013-08-27 10:11:00,
2013-08-27 06:16:00,69.6,66.6,30.09,WSW,247,0.0,0.0,90,0.00,,,0.00,WUHU21623XXSP,2013-08-27 10:16:00,
2013-08-27 06:21:00,69.6,66.6,30.09,WSW,247,0.0,0.0,90,0.00,,,0.00,WUHU21623XXSP,2013-08-27 10:21:00,
2013-08-27 06:26:00,69.6,66.6,30.09,WSW,247,0.0,0.0,90,0.00,,,0.00,WUHU21623XXSP,2013-08-27 10:26:00,
2013-08-27 06:31:00,69.6,66.6,30.09,WSW,247,0.0,0.0,90,0.00,,,0.00,WUHU21623XXSP,2013-08-27 10:31:00,
2013-08-27 06:36:00,69.6,66.6,30.09,WSW,247,0.0,0.0,90,0.00,,,0.00,WUHU21623XXSP,2013-08-27 10:36:00,
2013-08-27 06:41:00,69.6,66.6,30.09,WSW,247,0.0,0.0,90,0.00,,,0.00,WUHU21623XXSP,2013-08-27 10:41:00,
2013-08-27 06:46:00,69.6,66.6,30.09,SW,225,1.1,1.1,90,0.00,,,0.00,WUHU21623XXSP,2013-08-27 10:46:00,
2013-08-27 06:51:00,69.6,66.6,30.09,SSW,202,0.0,1.1,90,0.00,,,0.00,WUHU21623XXSP,2013-08-27 10:51:00,
2013-08-27 06:56:00,69.6,66.6,30.09,SSW,202,0.0,0.0,90,0.00,,,0.00,WUHU21623XXSP,2013-08-27 10:56:00,
2013-08-27 07:01:00,69.6,66.6,30.09,SSW,202,0.0,0.0,90,0.00,,,0.00,WUHU21623XXSP,2013-08-27 11:01:00,
2013-08-27 07:06:00,69.6,66.6,30.10,SSW,202,0.0,0.0,90,0.00,,,0.00,WUHU21623XXSP,2013-08-27 11:06:00,
2013-08-27 07:11:00,69.6,66.6,30.10,SSW,202,0.0,0.0,90,0.00,,,0.00,WUHU21623XXSP,2013-08-27 11:11:00,
2013-08-27 07:16:00,69.6,66.6,30.10,SSW,202,0.0,0.0,90,0.00,,,0.00,WUHU21623XXSP,2013-08-27 11:16:00,
2013-08-27 07:21:00,69.6,66.9,30.10,SSW,202,0.0,0.0,91,0.00,,,0.00,WUHU21623XXSP,2013-08-27 11:21:00,
2013-08-27 07:26:00,69.8,67.0,30.10,SSW,202,0.0,0.0,91,0.00,,,0.00,WUHU21623XXSP,2013-08-27 11:26:00,
2013-08-27 07:31:00,69.8,67.0,30.10,SSW,202,0.0,0.0,91,0.00,,,0.00,WUHU21623XXSP,2013-08-27 11:31:00,
2013-08-27 07:36:00,69.6,66.9,30.10,SSW,202,0.0,0.0,91,0.00,,,0.00,WUHU21623XXSP,2013-08-27 11:36:00,
2013-08-27 07:41:00,69.8,67.0,30.10,SSW,202,0.0,0.0,91,0.00,,,0.00,WUHU21623XXSP,2013-08-27 11:41:00,
2013-08-27 07:46:00,70.0,67.2,30.11,SSW,202,0.0,0.0,91,0.00,,,0.00,WUHU21623XXSP,2013-08-27 11:46:00,
2013-08-27 07:51:00,70.0,67.2,30.11,SSW,202,0.0,0.0,91,0.00,,,0.00,WUHU21623XXSP,2013-08-27 11:51:00,
2013-08-27 07:56:00,70.0,67.2,30.10,SSW,202,0.0,0.0,91,0.00,,,0.00,WUHU21623XXSP,2013-08-27 11:56:00,
2013-08-27 08:01:00,70.2,67.4,30.11,SSW,202,0.0,0.0,91,0.00,,,0.00,WUHU21623XXSP,2013-08-27 12:01:00,
2013-08-27 08:06:00,70.2,67.4,30.11,SSW,202,0.2,0.2,91,0.00,,,0.00,WUHU21623XXSP,2013-08-27 12:06:00,
2013-08-27 08:11:00,70.5,67.8,30.11,SSW,202,0.0,0.2,91,0.00,,,0.00,WUHU21623XXSP,2013-08-27 12:11:00,
2013-08-27 08:16:00,71.2,68.5,30.11,South,180,1.3,1.3,91,0.00,,,0.00,WUHU21623XXSP,2013-08-27 12:16:00,
2013-08-27 08:21:00,71.4,68.5,30.10,South,180,1.3,1.3,91,0.00,,,0.00,WUHU21623XXSP,2013-08-27 12:21:00,
2013-08-27 08:26:00,72.0,69.2,30.11,SSE,157,1.8,1.8,91,0.00,,,0.00,WUHU21623XXSP,2013-08-27 12:26:00,
2013-08-27 08:31:00,72.5,69.6,30.11,SSE,157,3.4,3.4,91,0.00,,,0.00,WUHU21623XXSP,2013-08-27 12:31:00,
2013-08-27 08:36:00,73.0,70.1,30.11,SSE,157,1.1,3.4,91,0.00,,,0.00,WUHU21623XXSP,2013-08-27 12:36:00,
2013-08-27 08:41:00,73.2,70.5,30.11,SSE,157,0.0,2.0,91,0.00,,,0.00,WUHU21623XXSP,2013-08-27 12:41:00,
2013-08-27 08:46:00,73.9,71.1,30.11,SSE,157,0.4,2.0,92,0.00,,,0.00,WUHU21623XXSP,2013-08-27 12:46:00,
2013-08-27 08:51:00,74.1,71.7,30.11,SSE,157,0.0,0.4,92,0.00,,,0.00,WUHU21623XXSP,2013-08-27 12:51:00,
2013-08-27 08:56:00,74.3,71.9,30.11,SSE,157,0.0,1.3,92,0.00,,,0.00,WUHU21623XXSP,2013-08-27 12:56:00,
2013-08-27 09:01:00,74.7,72.2,30.11,SSE,157,0.0,1.3,92,0.00,,,0.00,WUHU21623XXSP,2013-08-27 13:01:00,
2013-08-27 09:06:00,74.8,72.4,30.11,SSE,157,0.0,0.0,92,0.00,,,0.00,WUHU21623XXSP,2013-08-27 13:06:00,
2013-08-27 09:11:00,75.0,72.6,30.11,SSE,157,0.0,0.0,92,0.00,,,0.00,WUHU21623XXSP,2013-08-27 13:11:00,
2013-08-27 09:16:00,75.4,72.9,30.11,SSE,157,0.0,0.0,92,0.00,,,0.00,WUHU21623XXSP,2013-08-27 13:16:00,
2013-08-27 09:21:00,75.6,73.1,30.11,SSE,157,0.0,0.0,92,0.00,,,0.00,WUHU21623XXSP,2013-08-27 13:21:00,
2013-08-27 09:26:00,75.7,73.3,30.11,SSE,157,0.0,0.0,92,0.00,,,0.00,WUHU21623XXSP,2013-08-27 13:26:00,
2013-08-27 09:31:00,76.1,73.7,30.11,SSE,157,0.0,0.0,92,0.00,,,0.00,WUHU21623XXSP,2013-08-27 13:31:00,
2013-08-27 09:36:00,76.3,73.8,30.11,SSE,157,0.0,0.0,92,0.00,,,0.00,WUHU21623XXSP,2013-08-27 13:36:00,
2013-08-27 09:41:00,76.6,73.9,30.11,SSE,157,0.0,0.0,91,0.00,,,0.00,WUHU21623XXSP,2013-08-27 13:41:00,
2013-08-27 09:46:00,76.8,74.1,30.11,West,270,0.0,0.0,91,0.00,,,0.00,WUHU21623XXSP,2013-08-27 13:46:00,
2013-08-27 09:51:00,77.2,74.1,30.11,West,270,0.0,0.9,90,0.00,,,0.00,WUHU21623XXSP,2013-08-27 13:51:00,
2013-08-27 09:56:00,77.2,74.1,30.11,SW,225,0.0,0.9,90,0.00,,,0.00,WUHU21623XXSP,2013-08-27 13:56:00,
2013-08-27 10:01:00,77.5,74.5,30.11,WNW,292,0.0,0.0,90,0.00,,,0.00,WUHU21623XXSP,2013-08-27 14:01:00,
2013-08-27 10:06:00,77.7,74.3,30.11,WNW,292,0.0,0.0,89,0.00,,,0.00,WUHU21623XXSP,2013-08-27 14:06:00,
2013-08-27 10:11:00,78.1,74.7,30.11,West,270,0.0,0.0,89,0.00,,,0.00,WUHU21623XXSP,2013-08-27 14:11:00,
2013-08-27 10:17:00,78.6,74.8,30.11,SSW,202,0.0,0.0,88,0.00,,,0.00,WUHU21623XXSP,2013-08-27 14:17:00,
2013-08-27 10:22:00,79.3,75.5,30.11,West,270,0.0,1.6,88,0.00,,,0.00,WUHU21623XXSP,2013-08-27 14:22:00,
2013-08-27 10:27:00,79.7,75.5,30.10,WSW,247,0.0,1.6,87,0.00,,,0.00,WUHU21623XXSP,2013-08-27 14:27:00,
2013-08-27 10:32:00,80.4,75.5,30.11,SW,225,0.0,0.0,85,0.00,,,0.00,WUHU21623XXSP,2013-08-27 14:32:00,
2013-08-27 10:37:00,80.8,75.5,30.11,SW,225,1.6,1.6,84,0.00,,,0.00,WUHU21623XXSP,2013-08-27 14:37:00,
2013-08-27 10:42:00,81.0,75.3,30.11,South,180,0.0,1.6,83,0.00,,,0.00,WUHU21623XXSP,2013-08-27 14:42:00,
2013-08-27 10:47:00,81.1,75.0,30.11,South,180,0.9,0.9,82,0.00,,,0.00,WUHU21623XXSP,2013-08-27 14:47:00,
2013-08-27 10:52:00,81.1,74.8,30.11,South,180,0.0,0.9,81,0.00,,,0.00,WUHU21623XXSP,2013-08-27 14:52:00,
2013-08-27 10:57:00,81.3,75.0,30.11,SSW,202,0.9,0.9,81,0.00,,,0.00,WUHU21623XXSP,2013-08-27 14:57:00,
2013-08-27 11:02:00,81.5,74.8,30.11,SW,225,2.9,2.9,80,0.00,,,0.00,WUHU21623XXSP,2013-08-27 15:02:00,
2013-08-27 11:07:00,82.0,75.4,30.11,SW,225,1.1,2.9,80,0.00,,,0.00,WUHU21623XXSP,2013-08-27 15:07:00,
2013-08-27 11:12:00,82.2,74.7,30.11,WSW,247,2.0,2.0,78,0.00,,,0.00,WUHU21623XXSP,2013-08-27 15:12:00,
2013-08-27 11:17:00,82.6,74.9,30.11,WSW,247,0.0,2.0,78,0.00,,,0.00,WUHU21623XXSP,2013-08-27 15:17:00,
2013-08-27 11:22:00,82.8,75.2,30.10,SW,225,0.0,0.0,78,0.00,,,0.00,WUHU21623XXSP,2013-08-27 15:22:00,
2013-08-27 11:27:00,83.1,75.2,30.10,WSW,247,0.0,0.0,77,0.00,,,0.00,WUHU21623XXSP,2013-08-27 15:27:00,
2013-08-27 11:32:00,83.5,75.1,30.10,South,180,1.6,1.6,76,0.00,,,0.00,WUHU21623XXSP,2013-08-27 15:32:00,
2013-08-27 11:37:00,84.0,75.6,30.10,SSW,202,0.7,1.6,76,0.00,,,0.00,WUHU21623XXSP,2013-08-27 15:37:00,
2013-08-27 11:42:00,84.4,75.6,30.10,SSW,202,0.0,0.9,75,0.00,,,0.00,WUHU21623XXSP,2013-08-27 15:42:00,
2013-08-27 11:47:00,84.7,75.7,30.10,SSE,157,6.0,6.0,75,0.00,,,0.00,WUHU21623XXSP,2013-08-27 15:47:00,
2013-08-27 11:53:00,85.6,76.4,30.10,South,180,1.6,6.0,74,0.00,,,0.00,WUHU21623XXSP,2013-08-27 15:53:00,
2013-08-27 11:58:00,86.2,76.2,30.10,SW,225,0.0,1.6,72,0.00,,,0.00,WUHU21623XXSP,2013-08-27 15:58:00,
2013-08-27 12:03:00,86.9,76.5,30.10,South,180,0.7,0.7,71,0.00,,,0.00,WUHU21623XXSP,2013-08-27 16:03:00,
2013-08-27 12:08:00,87.6,76.7,30.10,WSW,247,0.7,0.7,70,0.00,,,0.00,WUHU21623XXSP,2013-08-27 16:08:00,
2013-08-27 12:13:00,88.0,77.0,30.10,SSE,157,6.0,6.0,69,0.00,,,0.00,WUHU21623XXSP,2013-08-27 16:13:00,
2013-08-27 12:18:00,88.3,76.4,30.10,SSW,202,1.6,6.0,68,0.00,,,0.00,WUHU21623XXSP,2013-08-27 16:18:00,
2013-08-27 12:23:00,88.5,76.8,30.09,NW,315,1.8,4.0,68,0.00,,,0.00,WUHU21623XXSP,2013-08-27 16:23:00,
2013-08-27 12:28:00,88.9,77.0,30.09,SW,225,0.9,1.8,68,0.00,,,0.00,WUHU21623XXSP,2013-08-27 16:28:00,
2013-08-27 12:33:00,89.1,77.1,30.09,NW,315,0.0,1.8,68,0.00,,,0.00,WUHU21623XXSP,2013-08-27 16:33:00,
2013-08-27 12:38:00,90.0,77.1,30.09,WSW,247,4.3,4.3,66,0.00,,,0.00,WUHU21623XXSP,2013-08-27 16:38:00,
2013-08-27 12:43:00,90.7,78.2,30.09,SW,225,0.0,4.3,67,0.00,,,0.00,WUHU21623XXSP,2013-08-27 16:43:00,
2013-08-27 12:48:00,91.2,78.2,30.09,SW,225,0.9,0.9,65,0.00,,,0.00,WUHU21623XXSP,2013-08-27 16:48:00,
2013-08-27 12:53:00,91.6,77.1,30.09,SW,225,2.9,2.9,63,0.00,,,0.00,WUHU21623XXSP,2013-08-27 16:53:00,
2013-08-27 12:58:00,91.8,77.3,30.09,WSW,247,0.0,2.9,63,0.00,,,0.00,WUHU21623XXSP,2013-08-27 16:58:00,
2013-08-27 13:03:00,91.9,77.5,30.09,WNW,292,1.1,2.5,63,0.00,,,0.00,WUHU21623XXSP,2013-08-27 17:03:00,
2013-08-27 13:08:00,92.7,77.8,30.08,NW,315,4.7,4.7,62,0.00,,,0.00,WUHU21623XXSP,2013-08-27 17:08:00,
2013-08-27 13:13:00,93.0,77.2,30.08,NW,315,4.0,4.7,60,0.00,,,0.00,WUHU21623XXSP,2013-08-27 17:13:00,
2013-08-27 13:18:00,93.4,77.0,30.08,SSW,202,7.2,7.2,59,0.00,,,0.00,WUHU21623XXSP,2013-08-27 17:18:00,
2013-08-27 13:23:00,93.6,77.1,30.08,West,270,0.0,7.2,59,0.00,,,0.00,WUHU21623XXSP,2013-08-27 17:23:00,
2013-08-27 13:28:00,93.6,77.1,30.08,SSW,202,7.4,7.4,59,0.00,,,0.00,WUHU21623XXSP,2013-08-27 17:28:00,
2013-08-27 13:33:00,93.6,76.6,30.08,WNW,292,0.0,7.4,58,0.00,,,0.00,WUHU21623XXSP,2013-08-27 17:33:00,
2013-08-27 13:38:00,94.1,77.1,30.07,SW,225,1.8,2.9,58,0.00,,,0.00,WUHU21623XXSP,2013-08-27 17:38:00,
2013-08-27 13:43:00,94.6,77.6,30.07,South,180,4.9,4.9,58,0.00,,,0.00,WUHU21623XXSP,2013-08-27 17:43:00,
2013-08-27 13:48:00,95.2,77.5,30.07,SW,225,2.7,4.9,57,0.00,,,0.00,WUHU21623XXSP,2013-08-27 17:48:00,
2013-08-27 13:53:00,95.7,76.9,30.07,NW,315,3.6,3.6,55,0.00,,,0.00,WUHU21623XXSP,2013-08-27 17:53:00,
2013-08-27 13:58:00,95.7,76.9,30.07,SW,225,2.9,3.6,55,0.00,,,0.00,WUHU21623XXSP,2013-08-27 17:58:00,
2013-08-27 14:03:00,96.1,77.3,30.06,WSW,247,0.0,2.9,55,0.00,,,0.00,WUHU21623XXSP,2013-08-27 18:03:00,
2013-08-27 14:08:00,96.1,77.3,30.06,SW,225,0.0,0.0,55,0.00,,,0.00,WUHU21623XXSP,2013-08-27 18:08:00,
2013-08-27 14:13:00,95.7,76.4,30.06,SW,225,0.0,0.9,54,0.00,,,0.00,WUHU21623XXSP,2013-08-27 18:13:00,
2013-08-27 14:18:00,95.2,75.9,30.06,West,270,0.0,0.9,54,0.00,,,0.00,WUHU21623XXSP,2013-08-27 18:18:00,
2013-08-27 14:23:00,93.7,74.0,30.06,NW,315,1.6,6.7,53,0.00,,,0.00,WUHU21623XXSP,2013-08-27 18:23:00,
2013-08-27 14:28:00,92.8,74.2,30.06,NNW,337,0.0,6.7,55,0.00,,,0.00,WUHU21623XXSP,2013-08-27 18:28:00,
2013-08-27 14:33:00,92.1,74.1,30.06,NW,315,0.0,4.7,56,0.00,,,0.00,WUHU21623XXSP,2013-08-27 18:33:00,
2013-08-27 14:38:00,91.8,74.3,30.05,West,270,1.1,2.5,57,0.00,,,0.00,WUHU21623XXSP,2013-08-27 18:38:00,
2013-08-27 14:43:00,91.6,74.6,30.05,NW,315,0.0,1.3,58,0.00,,,0.00,WUHU21623XXSP,2013-08-27 18:43:00,
2013-08-27 14:48:00,91.6,74.6,30.05,NW,315,4.3,4.3,58,0.00,,,0.00,WUHU21623XXSP,2013-08-27 18:48:00,
2013-08-27 14:53:00,91.6,74.6,30.05,WSW,247,0.0,4.3,58,0.00,,,0.00,WUHU21623XXSP,2013-08-27 18:53:00,
2013-08-27 14:58:00,91.9,74.5,30.05,SW,225,3.1,4.3,57,0.00,,,0.00,WUHU21623XXSP,2013-08-27 18:58:00,
2013-08-27 15:03:00,92.1,74.6,30.05,WSW,247,0.0,3.1,57,0.00,,,0.00,WUHU21623XXSP,2013-08-27 19:03:00,
2013-08-27 15:08:00,93.6,74.4,30.04,WSW,247,5.1,5.4,54,0.00,,,0.00,WUHU21623XXSP,2013-08-27 19:08:00,
2013-08-27 15:13:00,94.6,75.4,30.04,NW,315,2.9,5.4,54,0.00,,,0.00,WUHU21623XXSP,2013-08-27 19:13:00,
2013-08-27 15:18:00,94.8,74.5,30.04,South,180,4.3,5.6,52,0.00,,,0.00,WUHU21623XXSP,2013-08-27 19:18:00,
2013-08-27 15:23:00,93.7,74.0,30.04,SW,225,0.4,7.2,53,0.00,,,0.00,WUHU21623XXSP,2013-08-27 19:23:00,
2013-08-27 15:28:00,93.0,73.3,30.04,SW,225,2.9,7.2,53,0.00,,,0.00,WUHU21623XXSP,2013-08-27 19:28:00,
2013-08-27 15:32:00,92.8,73.1,30.04,SSE,157,1.8,2.9,53,0.00,,,0.00,WUHU21623XXSP,2013-08-27 19:32:00,
2013-08-27 15:37:00,92.3,72.6,30.03,SW,225,6.3,6.3,53,0.00,,,0.00,WUHU21623XXSP,2013-08-27 19:37:00,
2013-08-27 15:42:00,91.9,72.8,30.03,West,270,0.0,6.3,54,0.00,,,0.00,WUHU21623XXSP,2013-08-27 19:42:00,
2013-08-27 15:47:00,92.1,73.0,30.03,West,270,1.1,1.1,54,0.00,,,0.00,WUHU21623XXSP,2013-08-27 19:47:00,
2013-08-27 15:53:00,92.7,72.4,30.03,SW,225,4.9,5.4,52,0.00,,,0.00,WUHU21623XXSP,2013-08-27 19:53:00,
2013-08-27 15:58:00,92.8,73.1,30.03,SW,225,1.1,5.4,53,0.00,,,0.00,WUHU21623XXSP,2013-08-27 19:58:00,
2013-08-27 16:02:00,92.5,72.8,30.02,SW,225,2.9,3.4,53,0.00,,,0.00,WUHU21623XXSP,2013-08-27 20:02:00,
2013-08-27 16:07:00,92.5,72.8,30.02,SSW,202,2.7,6.3,53,0.00,,,0.00,WUHU21623XXSP,2013-08-27 20:07:00,
2013-08-27 16:12:00,92.8,73.1,30.02,SW,225,0.7,6.3,53,0.00,,,0.00,WUHU21623XXSP,2013-08-27 20:12:00,
2013-08-27 16:17:00,93.6,73.8,30.03,WSW,247,0.4,0.9,53,0.00,,,0.00,WUHU21623XXSP,2013-08-27 20:17:00,
2013-08-27 16:22:00,93.9,73.6,30.02,WSW,247,0.7,1.6,52,0.00,,,0.00,WUHU21623XXSP,2013-08-27 20:22:00,
2013-08-27 16:27:00,94.3,73.9,30.02,SW,225,2.9,6.7,52,0.00,,,0.00,WUHU21623XXSP,2013-08-27 20:27:00,
2013-08-27 16:32:00,94.5,74.1,30.02,WSW,247,1.8,6.7,52,0.00,,,0.00,WUHU21623XXSP,2013-08-27 20:32:00,
2013-08-27 16:37:00,94.6,74.3,30.02,SSW,202,6.0,6.0,52,0.00,,,0.00,WUHU21623XXSP,2013-08-27 20:37:00,
2013-08-27 16:42:00,94.5,74.1,30.02,SW,225,0.7,6.0,52,0.00,,,0.00,WUHU21623XXSP,2013-08-27 20:42:00,
2013-08-27 16:47:00,94.5,73.6,30.02,WSW,247,0.4,3.4,51,0.00,,,0.00,WUHU21623XXSP,2013-08-27 20:47:00,
2013-08-27 16:52:00,94.8,73.9,30.02,East,90,1.1,3.4,51,0.00,,,0.00,WUHU21623XXSP,2013-08-27 20:52:00,
2013-08-27 16:57:00,94.8,73.9,30.02,WSW,247,6.0,6.0,51,0.00,,,0.00,WUHU21623XXSP,2013-08-27 20:57:00,
2013-08-27 17:02:00,94.6,72.7,30.02,WSW,247,1.3,6.0,50,0.00,,,0.00,WUHU21623XXSP,2013-08-27 21:02:00,
2013-08-27 17:07:00,94.3,72.9,30.02,WSW,247,5.8,8.5,50,0.00,,,0.00,WUHU21623XXSP,2013-08-27 21:07:00,
2013-08-27 17:12:00,94.5,73.0,30.02,SSW,202,4.7,8.5,50,0.00,,,0.00,WUHU21623XXSP,2013-08-27 21:12:00,
2013-08-27 17:17:00,94.3,72.2,30.02,WSW,247,3.4,5.8,49,0.00,,,0.00,WUHU21623XXSP,2013-08-27 21:17:00,
2013-08-27 17:22:00,93.9,72.5,30.02,WSW,247,2.5,3.4,50,0.00,,,0.00,WUHU21623XXSP,2013-08-27 21:22:00,
2013-08-27 17:27:00,93.9,72.5,30.02,WSW,247,1.1,3.8,50,0.00,,,0.00,WUHU21623XXSP,2013-08-27 21:27:00,
2013-08-27 17:32:00,94.3,73.4,30.02,West,270,2.2,3.8,51,0.00,,,0.00,WUHU21623XXSP,2013-08-27 21:32:00,
2013-08-27 17:37:00,94.6,73.2,30.02,West,270,1.6,6.5,50,0.00,,,0.00,WUHU21623XXSP,2013-08-27 21:37:00,
2013-08-27 17:42:00,94.3,73.0,30.02,West,270,0.9,6.5,50,0.00,,,0.00,WUHU21623XXSP,2013-08-27 21:42:00,
2013-08-27 17:47:00,94.3,72.9,30.02,WSW,247,0.0,0.9,50,0.00,,,0.00,WUHU21623XXSP,2013-08-27 21:47:00,
2013-08-27 17:52:00,94.1,72.7,30.02,SW,225,1.6,3.1,50,0.00,,,0.00,WUHU21623XXSP,2013-08-27 21:52:00,
2013-08-27 17:57:00,93.7,72.3,30.02,SSW,202,0.0,5.4,50,0.00,,,0.00,WUHU21623XXSP,2013-08-27 21:57:00,
2013-08-27 18:02:00,93.4,72.5,30.02,SW,225,3.4,5.4,50,0.00,,,0.00,WUHU21623XXSP,2013-08-27 22:02:00,
2013-08-27 18:07:00,93.0,71.6,30.02,WSW,247,4.3,6.3,50,0.00,,,0.00,WUHU21623XXSP,2013-08-27 22:07:00,
2013-08-27 18:12:00,93.0,71.6,30.02,SW,225,0.9,6.3,50,0.00,,,0.00,WUHU21623XXSP,2013-08-27 22:12:00,
2013-08-27 18:17:00,92.8,72.0,30.02,SW,225,0.0,1.6,51,0.00,,,0.00,WUHU21623XXSP,2013-08-27 22:17:00,
2013-08-27 18:22:00,92.5,72.2,30.02,West,270,1.3,2.5,52,0.00,,,0.00,WUHU21623XXSP,2013-08-27 22:22:00,
2013-08-27 18:27:00,92.5,72.8,30.02,SSW,202,4.5,4.5,53,0.00,,,0.00,WUHU21623XXSP,2013-08-27 22:27:00,
2013-08-27 18:32:00,92.1,71.9,30.02,WSW,247,2.9,4.5,52,0.00,,,0.00,WUHU21623XXSP,2013-08-27 22:32:00,
2013-08-27 18:37:00,91.9,71.2,30.02,SW,225,0.0,3.8,51,0.00,,,0.00,WUHU21623XXSP,2013-08-27 22:37:00,
2013-08-27 18:42:00,91.6,70.9,30.02,NW,315,5.6,5.6,51,0.00,,,0.00,WUHU21623XXSP,2013-08-27 22:42:00,
2013-08-27 18:47:00,91.2,71.1,30.02,SSW,202,0.0,5.6,52,0.00,,,0.00,WUHU21623XXSP,2013-08-27 22:47:00,
2013-08-27 18:52:00,91.2,71.1,30.02,WSW,247,0.0,0.2,52,0.00,,,0.00,WUHU21623XXSP,2013-08-27 22:52:00,
2013-08-27 18:57:00,90.9,71.3,30.02,SW,225,0.0,0.0,53,0.00,,,0.00,WUHU21623XXSP,2013-08-27 22:57:00,
2013-08-27 19:02:00,90.1,71.2,30.02,West,270,1.8,1.8,54,0.00,,,0.00,WUHU21623XXSP,2013-08-27 23:02:00,
2013-08-27 19:07:00,89.6,70.7,30.02,SSW,202,2.2,2.2,54,0.00,,,0.00,WUHU21623XXSP,2013-08-27 23:07:00,
2013-08-27 19:12:00,89.2,70.9,30.01,West,270,0.0,2.2,55,0.00,,,0.00,WUHU21623XXSP,2013-08-27 23:12:00,
2013-08-27 19:17:00,88.7,71.0,30.01,SW,225,0.9,2.0,56,0.00,,,0.00,WUHU21623XXSP,2013-08-27 23:17:00,
2013-08-27 19:22:00,88.3,71.2,30.01,WSW,247,0.0,1.8,57,0.00,,,0.00,WUHU21623XXSP,2013-08-27 23:22:00,
2013-08-27 19:27:00,88.0,70.9,30.01,West,270,1.6,1.8,57,0.00,,,0.00,WUHU21623XXSP,2013-08-27 23:27:00,
2013-08-27 19:32:00,87.6,71.1,30.01,SW,225,0.0,5.1,58,0.00,,,0.00,WUHU21623XXSP,2013-08-27 23:32:00,
2013-08-27 19:37:00,87.4,71.4,30.01,SW,225,1.8,5.1,59,0.00,,,0.00,WUHU21623XXSP,2013-08-27 23:37:00,
2013-08-27 19:42:00,86.9,70.9,30.02,WSW,247,0.0,2.0,59,0.00,,,0.00,WUHU21623XXSP,2013-08-27 23:42:00,
2013-08-27 19:47:00,86.5,71.1,30.01,NNW,337,1.3,2.0,60,0.00,,,0.00,WUHU21623XXSP,2013-08-27 23:47:00,
2013-08-27 19:52:00,86.2,71.2,30.01,SW,225,0.0,4.3,61,0.00,,,0.00,WUHU21623XXSP,2013-08-27 23:52:00,
2013-08-27 19:57:00,85.8,70.8,30.02,WSW,247,0.9,4.3,61,0.00,,,0.00,WUHU21623XXSP,2013-08-27 23:57:00,
2013-08-27 20:02:00,85.1,70.6,30.02,WSW,247,0.0,0.9,62,0.00,,,0.00,WUHU21623XXSP,2013-08-28 00:02:00,
2013-08-27 20:07:00,84.7,70.4,30.02,WSW,247,0.0,0.9,62,0.00,,,0.00,WUHU21623XXSP,2013-08-28 00:07:00,
2013-08-27 20:12:00,84.4,70.0,30.02,WSW,247,0.9,0.9,62,0.00,,,0.00,WUHU21623XXSP,2013-08-28 00:12:00,
2013-08-27 20:17:00,84.0,70.1,30.02,SW,225,0.0,0.9,63,0.00,,,0.00,WUHU21623XXSP,2013-08-28 00:17:00,
2013-08-27 20:23:00,83.7,70.2,30.02,WSW,247,0.4,0.9,64,0.00,,,0.00,WUHU21623XXSP,2013-08-28 00:23:00,
2013-08-27 20:28:00,83.3,69.8,30.02,West,270,0.0,0.7,64,0.00,,,0.00,WUHU21623XXSP,2013-08-28 00:28:00,
2013-08-27 20:33:00,82.8,69.7,30.02,West,270,0.0,0.0,65,0.00,,,0.00,WUHU21623XXSP,2013-08-28 00:33:00,
2013-08-27 20:38:00,82.2,69.5,30.02,West,270,0.0,0.0,66,0.00,,,0.00,WUHU21623XXSP,2013-08-28 00:38:00,
2013-08-27 20:43:00,81.9,69.3,30.02,West,270,0.0,0.0,66,0.00,,,0.00,WUHU21623XXSP,2013-08-28 00:43:00,
2013-08-27 20:48:00,81.3,69.3,30.02,West,270,0.0,0.0,67,0.00,,,0.00,WUHU21623XXSP,2013-08-28 00:48:00,
2013-08-27 20:53:00,81.0,69.4,30.02,West,270,0.0,0.0,68,0.00,,,0.00,WUHU21623XXSP,2013-08-28 00:53:00,
2013-08-27 20:58:00,80.4,69.3,30.02,WSW,247,0.0,0.0,69,0.00,,,0.00,WUHU21623XXSP,2013-08-28 00:58:00,
2013-08-27 21:03:00,80.2,69.3,30.02,West,270,3.6,3.6,70,0.00,,,0.00,WUHU21623XXSP,2013-08-28 01:03:00,
2013-08-27 21:08:00,79.9,69.7,30.02,WSW,247,0.0,3.6,71,0.00,,,0.00,WUHU21623XXSP,2013-08-28 01:08:00,
2013-08-27 21:13:00,79.7,69.5,30.02,WSW,247,0.0,2.0,71,0.00,,,0.00,WUHU21623XXSP,2013-08-28 01:13:00,
2013-08-27 21:18:00,79.5,69.7,30.03,SW,225,0.0,0.0,72,0.00,,,0.00,WUHU21623XXSP,2013-08-28 01:18:00,
2013-08-27 21:23:00,79.2,69.3,30.02,SW,225,0.0,0.9,72,0.00,,,0.00,WUHU21623XXSP,2013-08-28 01:23:00,
2013-08-27 21:28:00,79.0,69.2,30.03,SW,225,0.0,0.9,72,0.00,,,0.00,WUHU21623XXSP,2013-08-28 01:28:00,
2013-08-27 21:33:00,78.6,68.8,30.03,SW,225,0.0,0.0,72,0.00,,,0.00,WUHU21623XXSP,2013-08-28 01:33:00,
2013-08-27 21:38:00,78.3,68.9,30.02,SW,225,0.0,0.0,73,0.00,,,0.00,WUHU21623XXSP,2013-08-28 01:38:00,
2013-08-27 21:43:00,77.9,68.5,30.03,SW,225,0.0,0.0,73,0.00,,,0.00,WUHU21623XXSP,2013-08-28 01:43:00,
2013-08-27 21:48:00,77.5,68.2,30.03,SW,225,0.0,0.0,73,0.00,,,0.00,WUHU21623XXSP,2013-08-28 01:48:00,
2013-08-27 21:53:00,77.2,68.2,30.03,SW,225,0.0,0.0,74,0.00,,,0.00,WUHU21623XXSP,2013-08-28 01:53:00,
2013-08-27 21:58:00,76.8,67.9,30.03,SW,225,0.0,0.0,74,0.00,,,0.00,WUHU21623XXSP,2013-08-28 01:58:00,
2013-08-27 22:03:00,76.5,67.9,30.02,SW,225,0.0,0.0,75,0.00,,,0.00,WUHU21623XXSP,2013-08-28 02:03:00,
2013-08-27 22:08:00,76.3,68.1,30.03,SW,225,0.0,0.0,76,0.00,,,0.00,WUHU21623XXSP,2013-08-28 02:08:00,
2013-08-27 22:13:00,75.9,67.8,30.03,SW,225,0.0,0.0,76,0.00,,,0.00,WUHU21623XXSP,2013-08-28 02:13:00,
2013-08-27 22:18:00,75.9,68.2,30.02,SW,225,0.0,0.0,77,0.00,,,0.00,WUHU21623XXSP,2013-08-28 02:18:00,
2013-08-27 22:23:00,75.7,68.0,30.03,SW,225,0.0,0.0,77,0.00,,,0.00,WUHU21623XXSP,2013-08-28 02:23:00,
2013-08-27 22:28:00,75.6,68.3,30.03,SW,225,0.0,0.0,78,0.00,,,0.00,WUHU21623XXSP,2013-08-28 02:28:00,
2013-08-27 22:33:00,75.4,68.5,30.03,SW,225,0.0,0.0,78,0.00,,,0.00,WUHU21623XXSP,2013-08-28 02:33:00,
2013-08-27 22:38:00,75.4,68.5,30.03,SW,225,0.0,0.0,79,0.00,,,0.00,WUHU21623XXSP,2013-08-28 02:38:00,
2013-08-27 22:43:00,75.4,68.5,30.03,SW,225,0.0,0.0,79,0.00,,,0.00,WUHU21623XXSP,2013-08-28 02:43:00,
2013-08-27 22:48:00,75.4,68.9,30.03,SW,225,0.0,0.0,80,0.00,,,0.00,WUHU21623XXSP,2013-08-28 02:48:00,
2013-08-27 22:53:00,75.2,68.7,30.03,SW,225,0.0,0.0,80,0.00,,,0.00,WUHU21623XXSP,2013-08-28 02:53:00,
2013-08-27 22:58:00,75.2,69.1,30.03,SW,225,0.0,0.0,81,0.00,,,0.00,WUHU21623XXSP,2013-08-28 02:58:00,
2013-08-27 23:03:00,75.0,68.9,30.03,SW,225,0.0,0.0,81,0.00,,,0.00,WUHU21623XXSP,2013-08-28 03:03:00,
2013-08-27 23:08:00,75.0,68.9,30.03,SW,225,0.0,0.0,81,0.00,,,0.00,WUHU21623XXSP,2013-08-28 03:08:00,
2013-08-27 23:13:00,75.0,68.9,30.03,SW,225,0.0,0.0,81,0.00,,,0.00,WUHU21623XXSP,2013-08-28 03:13:00,
2013-08-27 23:18:00,75.0,68.9,30.03,SW,225,0.0,0.0,81,0.00,,,0.00,WUHU21623XXSP,2013-08-28 03:18:00,
2013-08-27 23:23:00,75.0,68.9,30.02,SW,225,0.0,0.0,81,0.00,,,0.00,WUHU21623XXSP,2013-08-28 03:23:00,
2013-08-27 23:28:00,75.0,69.2,30.02,SW,225,0.0,0.0,82,0.00,,,0.00,WUHU21623XXSP,2013-08-28 03:28:00,
2013-08-27 23:33:00,75.0,69.2,30.02,SW,225,0.0,0.0,82,0.00,,,0.00,WUHU21623XXSP,2013-08-28 03:33:00,
2013-08-27 23:38:00,75.0,69.6,30.02,SW,225,0.0,0.0,83,0.00,,,0.00,WUHU21623XXSP,2013-08-28 03:38:00,
2013-08-27 23:43:00,75.0,69.6,30.02,SW,225,0.0,0.0,83,0.00,,,0.00,WUHU21623XXSP,2013-08-28 03:43:00,
2013-08-27 23:48:00,75.2,69.6,30.02,SW,225,0.0,0.0,83,0.00,,,0.00,WUHU21623XXSP,2013-08-28 03:48:00,
2013-08-27 23:53:00,75.4,69.9,30.02,SW,225,0.0,0.0,83,0.00,,,0.00,WUHU21623XXSP,2013-08-28 03:53:00,
2013-08-27 23:58:00,75.4,69.9,30.02,SW,225,0.0,0.0,83,0.00,,,0.00,WUHU21623XXSP,2013-08-28 03:58:00,